createdAt,value
2022-09-09T00:01:58.919Z,0.82
2022-09-09T00:04:35.098Z,2.42
2022-09-09T00:07:25.074Z,1.77
2022-09-09T00:10:25.173Z,1.50
2022-09-09T00:13:26.324Z,1.30
2022-09-09T00:16:05.686Z,1.58
2022-09-09T00:19:06.450Z,1.65
2022-09-09T00:21:52.030Z,1.65
2022-09-09T00:24:29.462Z,1.85
2022-09-09T00:27:13.205Z,2.10
2022-09-09T00:30:23.508Z,1.88
2022-09-09T00:33:05.147Z,1.35
2022-09-09T00:35:49.490Z,2.15
2022-09-09T00:38:37.436Z,1.77
2022-09-09T00:41:18.717Z,3.42
2022-09-09T00:43:58.621Z,1.88
2022-09-09T00:46:43.189Z,1.80
2022-09-09T00:50:01.165Z,2.30
2022-09-09T00:53:20.536Z,2.28
2022-09-09T00:56:22.637Z,2.42
2022-09-09T00:59:06.654Z,2.38
2022-09-09T01:01:33.721Z,2.35
2022-09-09T01:04:01.622Z,2.13
2022-09-09T01:06:38.095Z,2.42
2022-09-09T01:09:23.437Z,2.28
2022-09-09T01:12:11.403Z,2.70
2022-09-09T01:14:38.228Z,3.63
2022-09-09T01:17:28.941Z,3.03
2022-09-09T01:20:22.329Z,3.25
2022-09-09T01:23:20.133Z,3.25
2022-09-09T01:26:16.614Z,2.90
2022-09-09T01:28:47.607Z,3.45
2022-09-09T01:31:25.505Z,3.80
2022-09-09T01:33:52.395Z,4.32
2022-09-09T01:36:34.411Z,3.28
2022-09-09T01:39:01.258Z,4.22
2022-09-09T01:41:28.730Z,3.45
2022-09-09T01:44:11.690Z,3.65
2022-09-09T01:46:40.383Z,3.22
2022-09-09T01:49:14.150Z,3.10
2022-09-09T01:51:43.519Z,3.00
2022-09-09T01:54:13.445Z,3.50
2022-09-09T01:57:23.776Z,2.53
2022-09-09T02:00:04.538Z,1.90
2022-09-09T02:03:19.232Z,3.60
2022-09-09T02:06:20.219Z,2.78
2022-09-09T02:08:53.455Z,2.50
2022-09-09T02:11:24.337Z,2.65
2022-09-09T02:14:24.402Z,2.30
2022-09-09T02:17:04.253Z,2.28
2022-09-09T02:19:57.857Z,2.35
2022-09-09T02:22:40.489Z,2.25
2022-09-09T02:25:11.668Z,2.50
2022-09-09T02:27:41.544Z,2.22
2022-09-09T02:30:09.812Z,2.28
2022-09-09T02:32:48.919Z,2.60
2022-09-09T02:35:22.525Z,2.30
2022-09-09T02:37:52.654Z,2.30
2022-09-09T02:40:19.891Z,2.45
2022-09-09T02:42:51.324Z,2.47
2022-09-09T02:45:28.173Z,2.83
2022-09-09T02:50:34.875Z,3.80
2022-09-09T02:54:00.211Z,2.30
2022-09-09T02:56:31.424Z,2.78
2022-09-09T02:58:59.032Z,3.03
2022-09-09T03:01:26.744Z,3.92
2022-09-09T03:03:53.743Z,3.35
2022-09-09T03:06:20.608Z,2.75
2022-09-09T03:08:54.040Z,4.47
2022-09-09T03:11:28.823Z,2.97
2022-09-09T03:13:57.063Z,3.22
2022-09-09T03:16:25.807Z,3.80
2022-09-09T03:18:54.478Z,3.08
2022-09-09T03:21:21.309Z,3.03
2022-09-09T03:23:49.684Z,3.35
2022-09-09T03:26:16.755Z,3.33
2022-09-09T03:28:46.230Z,3.00
2022-09-09T03:31:16.951Z,2.95
2022-09-09T03:33:43.890Z,3.40
2022-09-09T03:36:13.916Z,2.85
2022-09-09T03:38:40.958Z,3.33
2022-09-09T03:41:08.891Z,3.75
2022-09-09T03:43:36.317Z,3.95
2022-09-09T03:46:03.419Z,3.75
2022-09-09T03:48:31.312Z,4.00
2022-09-09T03:51:01.667Z,5.07
2022-09-09T03:53:30.401Z,3.55
2022-09-09T03:56:00.603Z,4.57
2022-09-09T03:58:28.939Z,4.05
2022-09-09T04:01:03.065Z,4.88
2022-09-09T04:03:30.863Z,5.53
2022-09-09T04:05:59.998Z,5.60
2022-09-09T04:08:32.499Z,5.78
2022-09-09T04:11:02.691Z,5.75
2022-09-09T04:13:31.084Z,4.63
2022-09-09T04:16:01.343Z,5.43
2022-09-09T04:18:29.698Z,5.25
2022-09-09T04:20:58.325Z,4.65
2022-09-09T04:23:31.920Z,5.15
2022-09-09T04:26:01.438Z,4.68
2022-09-09T04:28:35.307Z,5.30
2022-09-09T04:31:19.706Z,4.80
2022-09-09T04:33:48.389Z,4.50
2022-09-09T04:36:16.820Z,4.65
2022-09-09T04:38:45.383Z,5.30
2022-09-09T04:41:13.367Z,4.53
2022-09-09T04:43:44.290Z,4.78
2022-09-09T04:46:11.822Z,5.55
2022-09-09T04:48:39.055Z,5.20
2022-09-09T04:51:12.677Z,5.32
2022-09-09T04:53:41.171Z,4.85
2022-09-09T04:56:14.356Z,5.97
2022-09-09T04:58:46.475Z,4.95
2022-09-09T05:01:22.892Z,4.65
2022-09-09T05:03:52.865Z,4.90
2022-09-09T05:06:23.594Z,4.72
2022-09-09T05:08:55.378Z,4.18
2022-09-09T05:11:31.530Z,5.65
2022-09-09T05:14:03.720Z,4.28
2022-09-09T05:16:32.648Z,3.90
2022-09-09T05:19:00.120Z,3.85
2022-09-09T05:21:35.438Z,3.90
2022-09-09T05:24:02.539Z,5.15
2022-09-09T05:26:30.511Z,4.30
2022-09-09T05:29:00.305Z,4.78
2022-09-09T05:31:29.692Z,4.15
2022-09-09T05:33:56.630Z,4.45
2022-09-09T05:36:24.475Z,4.28
2022-09-09T05:38:55.501Z,4.25
2022-09-09T05:41:24.014Z,4.18
2022-09-09T05:43:53.704Z,4.68
2022-09-09T05:46:25.074Z,4.20
2022-09-09T05:48:54.457Z,5.03
2022-09-09T05:51:30.973Z,4.30
2022-09-09T05:53:59.475Z,4.45
2022-09-09T05:56:30.530Z,4.22
2022-09-09T05:59:01.104Z,3.97
2022-09-09T06:01:37.297Z,4.47
2022-09-09T06:04:06.164Z,4.78
2022-09-09T06:06:40.548Z,4.43
2022-09-09T06:09:15.258Z,4.43
2022-09-09T06:11:44.586Z,4.68
2022-09-09T06:14:13.058Z,4.63
2022-09-09T06:16:43.212Z,4.53
2022-09-09T06:19:16.887Z,5.47
2022-09-09T06:21:45.323Z,3.88
2022-09-09T06:24:14.825Z,6.65
2022-09-09T06:26:42.490Z,4.18
2022-09-09T06:29:12.597Z,4.97
2022-09-09T06:31:42.395Z,4.10
2022-09-09T06:34:20.304Z,4.63
2022-09-09T06:36:50.758Z,4.38
2022-09-09T06:39:17.752Z,4.05
2022-09-09T06:41:45.798Z,3.88
2022-09-09T06:44:35.181Z,3.97
2022-09-09T06:47:03.776Z,3.28
2022-09-09T06:49:31.718Z,3.92
2022-09-09T06:51:58.680Z,3.53
2022-09-09T06:54:27.242Z,3.15
2022-09-09T06:56:54.908Z,3.47
2022-09-09T06:59:24.199Z,4.22
2022-09-09T07:01:56.295Z,4.13
2022-09-09T07:04:26.243Z,3.55
2022-09-09T07:06:53.716Z,4.65
2022-09-09T07:09:24.824Z,3.05
2022-09-09T07:11:56.119Z,3.85
2022-09-09T07:14:24.309Z,3.42
2022-09-09T07:16:59.799Z,3.63
2022-09-09T07:19:28.614Z,3.38
2022-09-09T07:21:56.608Z,2.90
2022-09-09T07:24:25.334Z,2.70
2022-09-09T07:26:53.054Z,2.15
2022-09-09T07:29:21.139Z,2.00
2022-09-09T07:31:49.656Z,2.42
2022-09-09T07:34:22.023Z,2.60
2022-09-09T07:36:49.835Z,3.15
2022-09-09T07:39:18.792Z,2.42
2022-09-09T07:41:50.257Z,1.80
2022-09-09T07:44:24.339Z,2.53
2022-09-09T07:46:57.829Z,2.17
2022-09-09T07:49:32.844Z,1.85
2022-09-09T07:52:01.562Z,2.33
2022-09-09T07:54:29.980Z,2.03
2022-09-09T07:57:00.228Z,2.15
2022-09-09T07:59:31.463Z,2.05
2022-09-09T08:01:59.445Z,2.38
2022-09-09T08:04:30.730Z,1.95
2022-09-09T08:07:01.019Z,2.85
2022-09-09T08:09:30.270Z,2.30
2022-09-09T08:12:06.459Z,2.38
2022-09-09T08:14:34.607Z,2.10
2022-09-09T08:17:02.268Z,1.90
2022-09-09T08:19:34.044Z,3.10
2022-09-09T08:22:02.785Z,2.47
2022-09-09T08:24:31.070Z,1.40
2022-09-09T08:26:57.942Z,1.67
2022-09-09T08:29:25.434Z,1.50
2022-09-09T08:31:59.958Z,1.42
2022-09-09T08:34:29.047Z,1.63
2022-09-09T08:36:57.913Z,1.98
2022-09-09T08:39:33.295Z,1.90
2022-09-09T08:42:29.298Z,1.80
2022-09-09T08:45:06.916Z,1.65
2022-09-09T08:47:53.463Z,1.80
2022-09-09T08:50:28.852Z,1.38
2022-09-09T08:53:09.053Z,1.92
2022-09-09T08:55:52.373Z,1.20
2022-09-09T08:58:33.322Z,2.17
2022-09-09T09:01:45.969Z,1.33
2022-09-09T09:04:30.036Z,1.80
2022-09-09T09:07:40.038Z,1.40
2022-09-09T09:10:41.814Z,1.92
2022-09-09T09:13:22.514Z,2.00
2022-09-09T09:16:00.583Z,1.77
2022-09-09T09:18:28.182Z,1.45
2022-09-09T09:21:06.417Z,1.80
2022-09-09T09:23:48.509Z,1.30
2022-09-09T09:26:16.115Z,1.10
2022-09-09T09:28:43.448Z,2.17
2022-09-09T09:31:15.615Z,1.67
2022-09-09T09:33:53.770Z,2.22
2022-09-09T09:36:40.287Z,1.20
2022-09-09T09:41:58.725Z,2.25
2022-09-09T09:44:28.382Z,1.55
2022-09-09T09:47:17.358Z,1.58
2022-09-09T09:50:00.443Z,1.40
2022-09-09T09:52:35.855Z,1.58
2022-09-09T09:55:08.469Z,1.27
2022-09-09T09:57:40.107Z,1.10
2022-09-09T10:00:23.391Z,2.72
2022-09-09T10:03:51.446Z,1.45
2022-09-09T10:06:18.378Z,1.33
2022-09-09T10:08:49.910Z,0.70
2022-09-09T10:12:16.452Z,0.80
2022-09-09T10:15:03.999Z,0.90
2022-09-09T10:17:51.138Z,1.00
2022-09-09T10:20:45.520Z,0.90
2022-09-09T10:23:45.955Z,1.38
2022-09-09T10:26:30.686Z,0.95
2022-09-09T10:29:39.973Z,1.00
2022-09-09T10:32:48.308Z,0.60
2022-09-09T10:35:31.679Z,1.58
2022-09-09T10:38:18.085Z,0.63
2022-09-09T10:40:54.194Z,1.35
2022-09-09T10:43:27.113Z,0.80
2022-09-09T10:46:42.845Z,0.70
2022-09-09T10:49:22.787Z,1.17
2022-09-09T10:52:02.103Z,1.30
2022-09-09T10:55:12.239Z,1.42
2022-09-09T10:57:50.030Z,1.15
2022-09-09T11:00:26.422Z,1.65
2022-09-09T11:03:03.196Z,1.75
2022-09-09T11:05:51.020Z,1.23
2022-09-09T11:10:57.601Z,1.50
2022-09-09T11:13:49.812Z,2.38
2022-09-09T11:16:37.715Z,1.65
2022-09-09T11:19:37.426Z,1.30
2022-09-09T11:22:19.631Z,1.15
2022-09-09T11:25:16.379Z,1.00
2022-09-09T11:28:03.459Z,1.48
2022-09-09T11:30:56.533Z,1.75
2022-09-09T11:33:54.451Z,1.20
2022-09-09T11:37:14.444Z,1.13
2022-09-09T11:40:20.407Z,0.65
2022-09-09T11:42:51.909Z,0.93
2022-09-09T11:45:29.682Z,1.40
2022-09-09T11:48:00.026Z,3.03
2022-09-09T11:50:26.850Z,1.50
2022-09-09T11:53:23.931Z,2.47
2022-09-09T11:56:45.152Z,1.58
2022-09-09T11:59:31.151Z,1.45
2022-09-09T12:05:06.429Z,1.27
2022-09-09T12:07:56.838Z,0.88
2022-09-09T12:10:41.266Z,1.05
2022-09-09T12:13:24.789Z,0.82
2022-09-09T12:15:55.223Z,1.13
2022-09-09T12:18:40.488Z,0.80
2022-09-09T12:21:41.739Z,0.75
2022-09-09T12:24:14.487Z,0.60
2022-09-09T12:27:13.948Z,0.70
2022-09-09T12:30:03.358Z,1.00
2022-09-09T12:32:31.083Z,1.05
2022-09-09T12:35:08.214Z,0.65
2022-09-09T12:37:43.620Z,0.40
2022-09-09T12:40:33.350Z,0.50
2022-09-09T12:43:02.244Z,1.27
2022-09-09T12:45:34.143Z,1.05
2022-09-09T12:48:06.497Z,1.08
2022-09-09T12:50:52.985Z,1.00
2022-09-09T12:53:37.692Z,1.33
2022-09-09T12:56:11.354Z,1.10
2022-09-09T12:58:39.529Z,0.70
2022-09-09T13:01:19.366Z,0.73
2022-09-09T13:03:46.651Z,0.70
2022-09-09T13:06:28.636Z,0.80
2022-09-09T13:09:01.391Z,0.90
2022-09-09T13:11:43.440Z,1.00
2022-09-09T13:14:38.700Z,1.02
2022-09-09T13:17:07.750Z,1.15
2022-09-09T13:19:38.128Z,1.08
2022-09-09T13:22:34.045Z,1.17
2022-09-09T13:25:10.095Z,1.20
2022-09-09T13:27:54.582Z,0.90
2022-09-09T13:30:30.427Z,0.70
2022-09-09T13:33:13.488Z,0.93
2022-09-09T13:36:00.112Z,0.30
2022-09-09T13:38:29.960Z,1.15
2022-09-09T13:41:24.665Z,1.40
2022-09-09T13:43:53.191Z,1.25
2022-09-09T13:46:31.469Z,1.42
2022-09-09T13:49:10.559Z,1.38
2022-09-09T13:51:47.862Z,1.40
2022-09-09T13:54:18.485Z,1.15
2022-09-09T13:56:46.451Z,1.42
2022-09-09T13:59:16.667Z,1.92
2022-09-09T14:01:43.962Z,1.42
2022-09-09T14:04:11.685Z,1.00
2022-09-09T14:06:40.393Z,1.20
2022-09-09T14:09:12.117Z,1.40
2022-09-09T14:11:41.562Z,1.60
2022-09-09T14:14:08.584Z,2.20
2022-09-09T14:16:36.572Z,1.42
2022-09-09T14:19:03.610Z,1.40
2022-09-09T14:21:31.012Z,1.27
2022-09-09T14:23:59.127Z,2.03
2022-09-09T14:26:27.252Z,1.25
2022-09-09T14:28:55.619Z,1.30
2022-09-09T14:31:26.186Z,1.27
2022-09-09T14:33:53.822Z,1.60
2022-09-09T14:36:21.133Z,1.35
2022-09-09T14:38:48.277Z,1.02
2022-09-09T14:41:18.340Z,0.98
2022-09-09T14:43:46.101Z,0.93
2022-09-09T14:46:17.175Z,1.55
2022-09-09T14:48:49.494Z,1.25
2022-09-09T14:51:20.787Z,0.90
2022-09-09T14:53:48.248Z,1.63
2022-09-09T14:56:19.843Z,0.88
2022-09-09T14:58:47.414Z,1.13
2022-09-09T15:01:17.109Z,0.98
2022-09-09T15:03:50.529Z,1.15
2022-09-09T15:06:17.435Z,1.10
2022-09-09T15:08:46.184Z,1.10
2022-09-09T15:11:14.988Z,1.50
2022-09-09T15:13:43.671Z,1.05
2022-09-09T15:16:18.206Z,1.55
2022-09-09T15:18:47.077Z,1.40
2022-09-09T15:21:20.064Z,1.33
2022-09-09T15:23:48.492Z,1.05
2022-09-09T15:26:16.180Z,2.25
2022-09-09T15:28:45.297Z,1.10
2022-09-09T15:31:18.384Z,0.73
2022-09-09T15:34:01.474Z,1.10
2022-09-09T15:36:37.354Z,0.77
2022-09-09T15:39:08.002Z,0.85
2022-09-09T15:41:35.049Z,1.15
2022-09-09T15:44:02.818Z,1.00
2022-09-09T15:46:49.767Z,0.98
2022-09-09T15:49:26.314Z,1.13
2022-09-09T15:52:02.194Z,2.55
2022-09-09T15:54:33.027Z,1.25
2022-09-09T15:57:03.632Z,1.58
2022-09-09T15:59:32.312Z,1.90
2022-09-09T16:02:01.087Z,2.05
2022-09-09T16:04:30.048Z,1.60
2022-09-09T16:07:05.450Z,2.42
2022-09-09T16:09:33.293Z,1.58
2022-09-09T16:12:02.158Z,1.90
2022-09-09T16:14:34.892Z,2.00
2022-09-09T16:17:02.012Z,2.63
2022-09-09T16:19:28.930Z,2.15
2022-09-09T16:21:55.809Z,2.78
2022-09-09T16:24:23.236Z,2.70
2022-09-09T16:26:53.207Z,2.75
2022-09-09T16:29:22.426Z,1.70
2022-09-09T16:31:50.601Z,2.00
2022-09-09T16:34:19.450Z,0.98
2022-09-09T16:36:49.287Z,1.00
2022-09-09T16:39:21.441Z,0.80
2022-09-09T16:41:49.441Z,0.80
2022-09-09T16:44:19.683Z,0.65
2022-09-09T16:46:49.663Z,0.80
2022-09-09T16:49:17.214Z,0.90
2022-09-09T16:51:50.195Z,0.80
2022-09-09T16:54:18.224Z,1.00
2022-09-09T16:56:47.902Z,1.00
2022-09-09T16:59:20.683Z,0.90
2022-09-09T17:01:50.963Z,0.95
2022-09-09T17:04:25.690Z,1.00
2022-09-09T17:06:55.473Z,0.80
2022-09-09T17:09:23.845Z,1.55
2022-09-09T17:11:53.152Z,1.63
2022-09-09T17:14:22.546Z,1.45
2022-09-09T17:16:49.844Z,1.75
2022-09-09T17:19:17.282Z,1.25
2022-09-09T17:22:12.470Z,1.80
2022-09-09T17:24:31.094Z,2.35
2022-09-09T17:26:58.651Z,2.20
2022-09-09T17:29:26.401Z,1.85
2022-09-09T17:31:53.953Z,1.70
2022-09-09T17:34:20.965Z,2.15
2022-09-09T17:36:47.956Z,2.17
2022-09-09T17:39:14.900Z,1.77
2022-09-09T17:41:42.208Z,1.98
2022-09-09T17:44:10.489Z,1.67
2022-09-09T17:46:41.422Z,1.50
2022-09-09T17:49:15.842Z,2.10
2022-09-09T17:51:44.253Z,2.58
2022-09-09T17:54:18.255Z,2.00
2022-09-09T17:56:46.761Z,2.30
2022-09-09T17:59:15.777Z,2.15
2022-09-09T18:01:46.114Z,3.05
2022-09-09T18:04:15.714Z,3.08
2022-09-09T18:06:50.152Z,2.20
2022-09-09T18:09:20.866Z,2.05
2022-09-09T18:11:50.943Z,2.63
2022-09-09T18:14:22.605Z,2.78
2022-09-09T18:16:51.196Z,2.50
2022-09-09T18:19:22.818Z,2.42
2022-09-09T18:21:50.519Z,2.67
2022-09-09T18:24:20.587Z,2.40
2022-09-09T18:26:49.390Z,3.33
2022-09-09T18:29:21.770Z,2.75
2022-09-09T18:31:49.200Z,2.70
2022-09-09T18:34:19.124Z,2.75
2022-09-09T18:36:54.972Z,3.17
2022-09-09T18:39:25.527Z,3.40
2022-09-09T18:41:59.390Z,3.38
2022-09-09T18:44:30.518Z,3.25
2022-09-09T18:46:57.638Z,3.33
2022-09-09T18:49:25.717Z,3.75
2022-09-09T18:51:53.288Z,3.72
2022-09-09T18:54:29.749Z,3.85
2022-09-09T18:56:57.336Z,3.25
2022-09-09T18:59:24.552Z,3.25
2022-09-09T19:01:53.259Z,3.42
2022-09-09T19:04:23.197Z,3.80
2022-09-09T19:06:52.367Z,4.07
2022-09-09T19:09:19.354Z,4.38
2022-09-09T19:11:47.218Z,4.47
2022-09-09T19:14:16.781Z,3.83
2022-09-09T19:16:45.319Z,4.88
2022-09-09T19:19:33.586Z,4.88
2022-09-09T19:22:01.830Z,4.68
2022-09-09T19:24:33.922Z,4.30
2022-09-09T19:27:04.665Z,4.25
2022-09-09T19:29:34.832Z,3.97
2022-09-09T19:32:49.381Z,4.70
2022-09-09T19:34:51.600Z,5.30
2022-09-09T19:37:19.349Z,4.65
2022-09-09T19:39:47.857Z,4.55
2022-09-09T19:42:14.814Z,4.70
2022-09-09T19:44:41.712Z,4.72
2022-09-09T19:47:08.702Z,5.13
2022-09-09T19:49:36.926Z,5.32
2022-09-09T19:52:04.703Z,4.75
2022-09-09T19:54:31.685Z,5.60
2022-09-09T19:56:59.350Z,5.85
2022-09-09T19:59:27.485Z,5.55
2022-09-09T20:01:56.547Z,5.22
2022-09-09T20:04:23.614Z,5.85
2022-09-09T20:06:53.187Z,5.22
2022-09-09T20:09:21.697Z,5.68
2022-09-09T20:11:49.834Z,6.28
2022-09-09T20:14:17.767Z,5.88
2022-09-09T20:16:45.674Z,5.90
2022-09-09T20:19:16.140Z,6.25
2022-09-09T20:21:47.884Z,6.35
2022-09-09T20:24:18.473Z,6.80
2022-09-09T20:26:48.015Z,6.32
2022-09-09T20:29:19.180Z,6.10
2022-09-09T20:31:46.584Z,7.13
2022-09-09T20:34:18.489Z,6.07
2022-09-09T20:36:46.217Z,6.68
2022-09-09T20:39:19.905Z,6.47
2022-09-09T20:41:47.675Z,6.97
2022-09-09T20:44:18.460Z,6.10
2022-09-09T20:46:57.004Z,7.65
2022-09-09T20:49:24.305Z,6.82
2022-09-09T20:51:53.153Z,6.38
2022-09-09T20:54:23.801Z,7.25
2022-09-09T20:56:52.821Z,6.32
2022-09-09T20:59:23.334Z,6.55
2022-09-09T21:01:51.185Z,6.25
2022-09-09T21:04:20.566Z,6.50
2022-09-09T21:06:50.045Z,6.60
2022-09-09T21:09:17.778Z,6.40
2022-09-09T21:11:44.659Z,7.28
2022-09-09T21:14:11.960Z,5.65
2022-09-09T21:16:39.724Z,5.45
2022-09-09T21:19:06.767Z,6.20
2022-09-09T21:21:33.604Z,6.28
2022-09-09T21:24:00.797Z,5.63
2022-09-09T21:26:27.993Z,6.30
2022-09-09T21:28:55.908Z,6.78
2022-09-09T21:31:27.747Z,6.47
2022-09-09T21:33:56.829Z,6.88
2022-09-09T21:36:24.422Z,5.97
2022-09-09T21:38:51.291Z,6.03
2022-09-09T21:41:19.121Z,7.05
2022-09-09T21:43:52.341Z,6.18
2022-09-09T21:46:19.763Z,7.28
2022-09-09T21:48:47.021Z,6.78
2022-09-09T21:51:16.906Z,7.53
2022-09-09T21:53:44.098Z,7.45
2022-09-09T21:56:15.215Z,8.68
2022-09-09T21:58:42.569Z,8.18
2022-09-09T22:01:16.281Z,8.18
2022-09-09T22:03:44.609Z,8.18
2022-09-09T22:06:15.638Z,8.70
2022-09-09T22:08:42.908Z,9.10
2022-09-09T22:11:22.149Z,7.63
2022-09-09T22:13:49.653Z,8.88
2022-09-09T22:16:20.130Z,7.88
2022-09-09T22:18:59.129Z,9.60
2022-09-09T22:21:29.495Z,9.73
2022-09-09T22:24:03.710Z,8.43
2022-09-09T22:26:36.214Z,9.10
2022-09-09T22:29:04.966Z,8.57
2022-09-09T22:31:33.121Z,8.95
2022-09-09T22:34:00.146Z,8.55
2022-09-09T22:36:27.011Z,9.55
2022-09-09T22:38:54.560Z,8.43
2022-09-09T22:41:21.479Z,9.02
2022-09-09T22:43:48.551Z,8.90
2022-09-09T22:46:16.206Z,8.77
2022-09-09T22:48:43.839Z,9.23
2022-09-09T22:51:13.242Z,8.63
2022-09-09T22:53:42.043Z,7.93
2022-09-09T22:56:17.476Z,8.15
2022-09-09T22:58:44.594Z,7.88
2022-09-09T23:01:15.875Z,6.88
2022-09-09T23:03:45.895Z,5.78
2022-09-09T23:06:20.058Z,6.78
2022-09-09T23:08:48.837Z,6.13
2022-09-09T23:11:17.301Z,7.70
2022-09-09T23:13:52.487Z,6.45
2022-09-09T23:16:29.406Z,6.95
2022-09-09T23:18:56.543Z,5.82
2022-09-09T23:21:26.195Z,6.05
2022-09-09T23:23:54.800Z,5.60
2022-09-09T23:26:24.021Z,4.57
2022-09-09T23:28:52.508Z,5.03
2022-09-09T23:31:22.570Z,5.20
2022-09-09T23:33:49.595Z,4.47
2022-09-09T23:36:22.173Z,5.43
2022-09-09T23:38:49.153Z,4.38
2022-09-09T23:41:20.841Z,5.07
2022-09-09T23:43:49.199Z,4.90
2022-09-09T23:46:20.200Z,4.93
2022-09-09T23:48:51.020Z,4.82
2022-09-09T23:51:23.880Z,5.20
2022-09-09T23:53:53.717Z,4.40
2022-09-09T23:56:22.161Z,4.63
2022-09-09T23:58:50.958Z,5.10
